Time;durP1;ratioP1;P1;durP2;ratioP2;P2;SDS_P1;SDS_P2;PMS_P1;PMS_P2;Temp;Humidity;BMP_temperature;BMP_pressure;BME280_temperature;BME280_humidity;BME280_pressure;Samples;Min_cycle;Max_cycle;Signal;HPM_P1;HPM_P2
2024/01/08 00:00:56;;;;;;;8.80;5.30;;;;;;;9.23;92.58;99470.67;108170;1276;21987;-67
2024/01/08 00:03:21;;;;;;;8.30;5.20;;;;;;;9.21;92.62;99471.75;108166;1277;22192;-62
2024/01/08 00:05:47;;;;;;;7.90;5.70;;;;;;;9.19;92.37;99471.44;108143;1285;21981;-62
2024/01/08 00:08:13;;;;;;;8.90;5.50;;;;;;;9.17;92.38;99471.48;108175;1285;21999;-62
2024/01/08 00:10:39;;;;;;;12.60;5.50;;;;;;;9.15;92.45;99474.86;108249;1285;22000;-62
2024/01/08 00:13:04;;;;;;;8.20;4.90;;;;;;;9.17;92.62;99472.72;108102;1285;21995;-66
2024/01/08 00:15:30;;;;;;;7.10;3.90;;;;;;;9.18;92.59;99469.38;108077;1285;21998;-62
2024/01/08 00:17:56;;;;;;;7.50;4.90;;;;;;;9.15;92.56;99468.39;108160;1286;22001;-62
2024/01/08 00:20:21;;;;;;;7.40;4.60;;;;;;;9.12;92.62;99468.64;108151;1276;21974;-62
2024/01/08 00:22:49;;;;;;;7.90;4.80;;;;;;;9.08;92.54;99469.39;108240;1286;21997;-62
2024/01/08 00:25:15;;;;;;;7.00;4.30;;;;;;;9.06;92.51;99466.65;108177;1285;21983;-62
2024/01/08 00:27:41;;;;;;;7.40;4.20;;;;;;;9.01;92.41;99463.06;108093;1272;21993;-63
2024/01/08 00:30:08;;;;;;;7.30;4.40;;;;;;;9.00;92.62;99458.20;108078;1285;22030;-68
2024/01/08 00:32:33;;;;;;;7.80;4.10;;;;;;;8.99;92.76;99451.04;108110;1286;21996;-68
2024/01/08 00:34:59;;;;;;;8.60;4.50;;;;;;;8.98;92.83;99447.39;108056;1285;21978;-66
2024/01/08 00:37:24;;;;;;;6.90;3.90;;;;;;;8.97;92.86;99450.21;108173;1277;21984;-67
2024/01/08 00:39:50;;;;;;;8.60;4.00;;;;;;;8.99;92.97;99448.77;108044;1285;21997;-62
2024/01/08 00:42:15;;;;;;;9.00;4.20;;;;;;;9.01;93.13;99446.45;108072;1279;22539;-63
2024/01/08 00:44:41;;;;;;;8.20;4.50;;;;;;;9.04;93.12;99447.80;108064;1283;21994;-61
2024/01/08 00:47:07;;;;;;;7.50;4.20;;;;;;;9.04;93.07;99448.86;108238;1279;21974;-66
2024/01/08 00:49:32;;;;;;;9.60;4.70;;;;;;;9.01;92.71;99449.26;108250;1276;22007;-63
2024/01/08 00:51:58;;;;;;;6.40;4.00;;;;;;;8.96;92.44;99451.96;108084;1286;23318;-63
2024/01/08 00:54:23;;;;;;;6.80;4.30;;;;;;;8.89;91.90;99455.27;108072;1285;21961;-63
2024/01/08 00:56:49;;;;;;;6.80;3.80;;;;;;;8.87;92.43;99456.70;108170;1285;23387;-67
2024/01/08 00:59:14;;;;;;;7.60;4.10;;;;;;;8.88;92.98;99452.66;108101;1279;22007;-68
2024/01/08 01:01:40;;;;;;;9.50;4.40;;;;;;;8.87;92.90;99448.65;108195;1285;21997;-62
2024/01/08 01:04:05;;;;;;;8.40;3.70;;;;;;;8.85;92.76;99445.20;108111;1276;21982;-69
2024/01/08 01:06:31;;;;;;;6.50;3.80;;;;;;;8.85;93.02;99445.03;108313;1283;21989;-63
2024/01/08 01:08:57;;;;;;;7.30;3.60;;;;;;;8.84;93.00;99445.91;108211;1285;22002;-69
2024/01/08 01:11:22;;;;;;;6.00;3.80;;;;;;;8.86;93.13;99448.16;108321;1279;21989;-67
2024/01/08 01:13:48;;;;;;;9.10;3.70;;;;;;;8.89;93.55;99452.80;108265;1275;21989;-63
2024/01/08 01:16:14;;;;;;;7.00;3.70;;;;;;;8.93;93.43;99448.90;108058;1276;21996;-62
2024/01/08 01:18:39;;;;;;;6.90;3.60;;;;;;;8.95;93.51;99442.39;108102;1280;23701;-67
2024/01/08 01:21:05;;;;;;;7.60;3.70;;;;;;;8.94;93.05;99442.75;108123;1285;22036;-62
2024/01/08 01:23:31;;;;;;;6.60;3.50;;;;;;;8.96;92.90;99444.11;107969;1280;141094;-62
2024/01/08 01:25:57;;;;;;;7.30;3.50;;;;;;;8.92;92.86;99444.35;108132;1279;21991;-61
2024/01/08 01:28:22;;;;;;;7.50;4.10;;;;;;;8.89;92.71;99446.16;108100;1283;23087;-62
2024/01/08 01:30:48;;;;;;;5.50;3.30;;;;;;;8.90;92.82;99442.13;108240;1280;21992;-69
2024/01/08 01:33:13;;;;;;;6.60;3.30;;;;;;;8.89;92.87;99439.70;108196;1285;21992;-69
2024/01/08 01:35:39;;;;;;;4.80;2.70;;;;;;;8.84;92.61;99435.44;108151;1276;22008;-68
2024/01/08 01:38:05;;;;;;;5.70;2.90;;;;;;;8.79;92.69;99432.91;108089;1286;21992;-61
2024/01/08 01:40:30;;;;;;;5.10;2.20;;;;;;;8.77;92.92;99433.12;108205;1286;22026;-61
2024/01/08 01:42:56;;;;;;;3.60;2.00;;;;;;;8.76;92.90;99436.82;108207;1283;21990;-68
2024/01/08 01:45:22;;;;;;;4.60;2.30;;;;;;;8.77;93.15;99434.70;108255;1285;22008;-61
2024/01/08 01:47:49;;;;;;;5.20;2.30;;;;;;;8.78;93.10;99432.22;108210;1286;21992;-65
2024/01/08 01:50:14;;;;;;;3.90;2.00;;;;;;;8.81;92.95;99429.20;108146;1285;21993;-62
2024/01/08 01:52:40;;;;;;;3.30;2.00;;;;;;;8.83;93.08;99435.29;108095;1286;22009;-62
2024/01/08 01:55:06;;;;;;;3.90;1.80;;;;;;;8.84;93.10;99434.20;108173;1285;23729;-65
2024/01/08 01:57:32;;;;;;;4.20;1.60;;;;;;;8.83;92.84;99431.41;108120;1285;23421;-67
2024/01/08 01:59:57;;;;;;;3.50;1.60;;;;;;;8.83;92.60;99434.41;108108;1285;21994;-61
2024/01/08 02:02:27;;;;;;;4.50;1.80;;;;;;;8.79;92.58;99430.98;108142;1285;22008;-61
2024/01/08 02:04:55;;;;;;;3.10;1.40;;;;;;;8.80;92.74;99432.38;108241;1285;22009;-65
2024/01/08 02:07:20;;;;;;;6.90;1.90;;;;;;;8.82;93.02;99430.05;108105;1276;21986;-67
2024/01/08 02:09:46;;;;;;;5.50;1.70;;;;;;;8.84;92.89;99431.94;108153;1277;21983;-62
2024/01/08 02:12:16;;;;;;;4.70;2.00;;;;;;;8.86;92.85;99428.73;108076;1285;21991;-64
2024/01/08 02:14:43;;;;;;;3.70;1.90;;;;;;;8.86;92.67;99431.70;108128;1276;22000;-61
2024/01/08 02:17:08;;;;;;;4.40;2.10;;;;;;;8.87;92.75;99427.32;108123;1280;21991;-67
2024/01/08 02:19:34;;;;;;;11.20;2.70;;;;;;;8.85;92.61;99430.67;108273;1285;21984;-66
2024/01/08 02:21:59;;;;;;;4.80;2.20;;;;;;;8.83;92.57;99433.69;108195;1285;21984;-62
2024/01/08 02:24:28;;;;;;;4.40;2.00;;;;;;;8.80;92.45;99432.00;108099;1285;22458;-67
2024/01/08 02:26:54;;;;;;;5.60;2.20;;;;;;;8.80;92.37;99433.41;108211;1283;22008;-63
2024/01/08 02:29:21;;;;;;;5.00;2.40;;;;;;;8.81;92.46;99435.15;108139;1278;21998;-62
2024/01/08 02:31:47;;;;;;;4.50;1.70;;;;;;;8.76;91.97;99437.33;108146;1285;21992;-65
2024/01/08 02:34:13;;;;;;;3.60;1.90;;;;;;;8.74;92.39;99437.36;108098;1285;22007;-67
2024/01/08 02:36:38;;;;;;;5.50;2.20;;;;;;;8.74;92.40;99431.25;108069;1285;21997;-62
2024/01/08 02:39:05;;;;;;;3.90;2.20;;;;;;;8.74;92.57;99433.17;108098;1283;21991;-62
2024/01/08 02:41:30;;;;;;;4.60;2.20;;;;;;;8.75;92.61;99430.19;108214;1276;21979;-66
2024/01/08 02:43:56;;;;;;;5.00;2.30;;;;;;;8.75;92.56;99431.05;108105;1285;21996;-68
2024/01/08 02:46:21;;;;;;;5.10;2.40;;;;;;;8.74;92.90;99428.45;108105;1273;22006;-62
2024/01/08 02:48:47;;;;;;;7.70;2.20;;;;;;;8.74;92.91;99430.19;108098;1285;21994;-62
2024/01/08 02:51:14;;;;;;;5.10;2.20;;;;;;;8.77;92.83;99428.57;108146;1286;21987;-62
2024/01/08 02:53:39;;;;;;;5.20;2.50;;;;;;;8.78;92.59;99426.80;108115;1276;21995;-67
2024/01/08 02:56:06;;;;;;;4.30;2.10;;;;;;;8.77;92.53;99427.71;108085;1279;22014;-62
2024/01/08 02:58:31;;;;;;;5.70;2.30;;;;;;;8.76;92.58;99425.96;108152;1272;21992;-67
2024/01/08 03:00:59;;;;;;;4.20;2.30;;;;;;;8.77;92.68;99426.81;108281;1279;21993;-62
2024/01/08 03:03:25;;;;;;;5.30;2.70;;;;;;;8.79;92.69;99425.55;108253;1273;21987;-68
2024/01/08 03:05:51;;;;;;;5.40;2.20;;;;;;;8.80;92.53;99424.31;108146;1285;22000;-62
2024/01/08 03:08:16;;;;;;;6.00;2.70;;;;;;;8.81;92.46;99425.52;108139;1272;22001;-62
2024/01/08 03:10:42;;;;;;;5.20;2.20;;;;;;;8.81;92.36;99427.45;108092;1285;21991;-66
2024/01/08 03:13:08;;;;;;;5.70;2.80;;;;;;;8.82;92.25;99427.09;108144;1285;21987;-62
2024/01/08 03:15:33;;;;;;;5.00;2.60;;;;;;;8.79;91.97;99435.89;108247;1285;21994;-62
2024/01/08 03:17:59;;;;;;;7.30;3.20;;;;;;;8.77;91.84;99439.92;108160;1285;21987;-63
2024/01/08 03:20:24;;;;;;;4.30;2.50;;;;;;;8.78;91.94;99442.73;108117;1285;23623;-67
2024/01/08 03:22:51;;;;;;;6.80;3.00;;;;;;;8.76;91.69;99442.59;108139;1285;21991;-62
2024/01/08 03:25:16;;;;;;;5.20;3.10;;;;;;;8.72;91.60;99443.18;108067;1285;21990;-67
2024/01/08 03:27:42;;;;;;;6.40;3.10;;;;;;;8.70;91.74;99444.63;108059;1285;22012;-68
2024/01/08 03:30:08;;;;;;;6.60;3.30;;;;;;;8.68;91.72;99446.94;108058;1272;22007;-62
2024/01/08 03:32:34;;;;;;;5.30;3.70;;;;;;;8.66;91.79;99450.65;108160;1286;22452;-63
2024/01/08 03:35:00;;;;;;;7.50;3.50;;;;;;;8.62;91.48;99450.71;108066;1282;23731;-66
2024/01/08 03:37:25;;;;;;;6.40;3.30;;;;;;;8.61;91.61;99454.76;108164;1285;22000;-68
2024/01/08 03:39:51;;;;;;;6.70;3.20;;;;;;;8.59;91.69;99452.89;108158;1273;21993;-63
2024/01/08 03:42:16;;;;;;;5.50;2.70;;;;;;;8.56;91.73;99455.04;108011;1273;21994;-63
2024/01/08 03:44:42;;;;;;;5.70;3.10;;;;;;;8.57;91.64;99461.14;108078;1285;23683;-63
2024/01/08 03:47:07;;;;;;;4.80;2.40;;;;;;;8.55;91.86;99461.52;108204;1279;21986;-62
2024/01/08 03:49:33;;;;;;;5.60;2.30;;;;;;;8.53;91.81;99465.23;108087;1285;21980;-63
2024/01/08 03:51:58;;;;;;;3.80;2.20;;;;;;;8.53;92.04;99466.27;108078;1285;24221;-63
2024/01/08 03:54:24;;;;;;;5.40;2.30;;;;;;;8.54;91.90;99469.59;108258;1285;22001;-65
2024/01/08 03:56:50;;;;;;;4.90;2.50;;;;;;;8.54;91.88;99469.75;108124;1285;21992;-62
2024/01/08 03:59:17;;;;;;;5.00;2.40;;;;;;;8.55;91.87;99474.99;108178;1276;23355;-66
2024/01/08 04:01:44;;;;;;;4.20;2.10;;;;;;;8.55;91.89;99476.55;108075;1285;21986;-66
2024/01/08 04:04:10;;;;;;;3.80;2.10;;;;;;;8.53;91.56;99475.02;108307;1286;21989;-66
2024/01/08 04:06:35;;;;;;;5.10;2.00;;;;;;;8.48;91.47;99479.64;108176;1286;22022;-62
2024/01/08 04:09:01;;;;;;;3.70;2.00;;;;;;;8.44;91.78;99485.80;108211;1285;21988;-66
2024/01/08 04:11:26;;;;;;;5.30;2.20;;;;;;;8.45;91.94;99487.90;108079;1285;21988;-62
2024/01/08 04:13:52;;;;;;;3.40;1.60;;;;;;;8.45;92.03;99495.95;108221;1285;21992;-63
2024/01/08 04:16:18;;;;;;;6.10;2.50;;;;;;;8.42;91.96;99498.10;108159;1285;22021;-62
2024/01/08 04:18:43;;;;;;;3.30;1.90;;;;;;;8.43;91.82;99503.48;108058;1285;22014;-63
2024/01/08 04:21:09;;;;;;;6.10;2.40;;;;;;;8.43;91.63;99504.71;108238;1276;21983;-64
2024/01/08 04:23:34;;;;;;;5.40;2.30;;;;;;;8.41;91.58;99503.88;108235;1279;22027;-65
2024/01/08 04:26:00;;;;;;;4.40;2.20;;;;;;;8.40;91.60;99503.20;108262;1285;21999;-63
2024/01/08 04:28:25;;;;;;;6.00;2.60;;;;;;;8.36;91.22;99506.41;108297;1285;22013;-62
2024/01/08 04:30:51;;;;;;;7.10;2.80;;;;;;;8.34;91.37;99505.04;108320;1282;21986;-62
2024/01/08 04:33:16;;;;;;;5.00;2.40;;;;;;;8.34;91.51;99502.24;108122;1285;21995;-62
2024/01/08 04:35:42;;;;;;;7.00;2.10;;;;;;;8.33;91.40;99507.51;108115;1286;21957;-62
2024/01/08 04:38:07;;;;;;;4.10;2.30;;;;;;;8.31;91.45;99504.91;108159;1272;21997;-62
2024/01/08 04:40:33;;;;;;;6.80;2.10;;;;;;;8.30;91.51;99503.54;108036;1285;21990;-65
2024/01/08 04:42:59;;;;;;;4.30;2.20;;;;;;;8.26;91.24;99509.90;108008;1277;22049;-62
2024/01/08 04:45:24;;;;;;;4.40;1.80;;;;;;;8.24;91.28;99507.32;108113;1285;21990;-66
2024/01/08 04:47:50;;;;;;;6.10;2.00;;;;;;;8.24;91.43;99508.17;108032;1285;21989;-63
2024/01/08 04:50:15;;;;;;;4.00;1.80;;;;;;;8.23;91.31;99509.41;108060;1275;22518;-62
2024/01/08 04:52:41;;;;;;;4.80;1.80;;;;;;;8.18;91.19;99511.93;108081;1285;21993;-62
2024/01/08 04:55:06;;;;;;;3.70;1.70;;;;;;;8.15;91.03;99513.58;108080;1279;21990;-62
2024/01/08 04:57:32;;;;;;;5.10;1.60;;;;;;;8.14;91.05;99511.67;108295;1279;21972;-62
2024/01/08 04:59:57;;;;;;;5.00;1.40;;;;;;;8.12;91.20;99509.60;108304;1285;21999;-61
2024/01/08 05:02:23;;;;;;;2.90;1.40;;;;;;;8.07;91.01;99514.23;108291;1276;23612;-66
2024/01/08 05:04:49;;;;;;;2.90;1.50;;;;;;;8.04;90.68;99515.83;108186;1285;22007;-62
2024/01/08 05:07:14;;;;;;;3.10;1.60;;;;;;;8.04;90.86;99516.36;108103;1279;21985;-61
2024/01/08 05:09:40;;;;;;;3.40;1.80;;;;;;;8.03;90.95;99514.29;108038;1279;21991;-62
2024/01/08 05:12:06;;;;;;;2.80;1.40;;;;;;;8.02;90.95;99515.87;108127;1286;21986;-65
2024/01/08 05:14:32;;;;;;;4.10;1.60;;;;;;;8.01;90.80;99520.59;108066;1273;21997;-61
2024/01/08 05:16:57;;;;;;;2.10;1.30;;;;;;;8.00;90.56;99524.80;108091;1285;21993;-61
2024/01/08 05:19:23;;;;;;;2.60;1.50;;;;;;;7.99;90.71;99525.69;108301;1280;21998;-63
2024/01/08 05:21:48;;;;;;;2.70;1.40;;;;;;;7.99;90.73;99529.37;108309;1275;21990;-61
2024/01/08 05:24:14;;;;;;;3.80;1.30;;;;;;;7.98;90.69;99532.69;108290;1285;22001;-61
2024/01/08 05:26:39;;;;;;;5.00;1.70;;;;;;;7.98;90.76;99531.30;108217;1277;21987;-61
2024/01/08 05:29:07;;;;;;;2.50;1.40;;;;;;;7.96;90.47;99536.05;108293;1286;21990;-65
2024/01/08 05:31:32;;;;;;;4.00;1.50;;;;;;;7.90;90.27;99535.97;108273;1284;22008;-66
2024/01/08 05:33:58;;;;;;;3.10;1.30;;;;;;;7.86;90.46;99536.02;108085;1275;22160;-61
2024/01/08 05:36:23;;;;;;;2.50;1.20;;;;;;;7.85;90.62;99538.84;108118;1279;21992;-64
2024/01/08 05:38:50;;;;;;;12.30;2.00;;;;;;;7.83;90.97;99541.30;108063;1285;21987;-65
2024/01/08 05:41:18;;;;;;;7.40;1.50;;;;;;;7.82;91.42;99542.55;108186;1273;21993;-62
2024/01/08 05:43:43;;;;;;;10.10;2.00;;;;;;;7.81;91.50;99548.33;107461;1276;1006373;-66
2024/01/08 05:46:10;;;;;;;16.40;2.10;;;;;;;7.80;91.65;99551.83;107341;1279;1003553;-63
2024/01/08 05:48:39;;;;;;;10.30;2.30;;;;;;;7.80;91.66;99559.17;108098;1286;22001;-64
2024/01/08 05:51:06;;;;;;;7.20;1.80;;;;;;;7.80;91.53;99565.11;108119;1280;22015;-62
2024/01/08 05:53:32;;;;;;;3.30;1.40;;;;;;;7.81;91.56;99569.29;108200;1286;22002;-62
2024/01/08 05:55:58;;;;;;;9.20;1.80;;;;;;;7.79;91.38;99572.11;108080;1279;21973;-65
2024/01/08 05:58:24;;;;;;;6.80;1.60;;;;;;;7.73;91.08;99569.73;108184;1286;21996;-62
2024/01/08 06:00:49;;;;;;;4.50;1.70;;;;;;;7.70;90.94;99575.39;108228;1276;21988;-66
2024/01/08 06:03:15;;;;;;;2.00;1.20;;;;;;;7.68;90.93;99579.60;108198;1285;21997;-65
2024/01/08 06:05:41;;;;;;;9.50;1.60;;;;;;;7.65;90.48;99577.55;107329;1285;1002520;-61
2024/01/08 06:08:07;;;;;;;4.60;1.40;;;;;;;7.63;90.64;99578.25;107320;1279;1002885;-62
2024/01/08 06:10:33;;;;;;;4.50;1.50;;;;;;;7.61;91.04;99578.63;108111;1283;21986;-65
2024/01/08 06:12:59;;;;;;;3.60;1.40;;;;;;;7.61;90.90;99580.55;108183;1279;21995;-61
2024/01/08 06:15:24;;;;;;;6.60;1.40;;;;;;;7.62;91.21;99581.23;108147;1273;21992;-65
2024/01/08 06:17:50;;;;;;;3.30;1.40;;;;;;;7.60;91.03;99579.67;108122;1286;21997;-66
2024/01/08 06:20:15;;;;;;;3.80;1.90;;;;;;;7.57;90.35;99581.64;108305;1280;21986;-62
2024/01/08 06:22:41;;;;;;;4.70;1.70;;;;;;;7.54;90.26;99583.95;108218;1286;22096;-65
2024/01/08 06:25:07;;;;;;;3.90;1.50;;;;;;;7.48;89.96;99582.30;108196;1279;21993;-61
2024/01/08 06:27:33;;;;;;;2.70;1.10;;;;;;;7.43;89.93;99587.41;108172;1276;22026;-62
2024/01/08 06:29:59;;;;;;;3.40;1.40;;;;;;;7.40;90.06;99592.51;108191;1279;21992;-65
2024/01/08 06:32:25;;;;;;;2.40;1.40;;;;;;;7.39;90.19;99594.08;108251;1272;21994;-65
2024/01/08 06:34:50;;;;;;;3.20;1.30;;;;;;;7.38;90.18;99597.77;108122;1279;21985;-66
2024/01/08 06:37:16;;;;;;;3.10;1.10;;;;;;;7.36;90.19;99603.55;108180;1285;22042;-62
2024/01/08 06:39:42;;;;;;;5.60;1.50;;;;;;;7.34;90.35;99604.44;107444;1285;1002170;-61
2024/01/08 06:42:08;;;;;;;3.50;1.50;;;;;;;7.32;90.10;99603.42;108218;1272;21992;-62
2024/01/08 06:44:34;;;;;;;3.30;1.60;;;;;;;7.30;90.02;99601.68;108190;1283;22005;-61
2024/01/08 06:46:59;;;;;;;2.40;1.40;;;;;;;7.29;90.31;99605.20;108065;1286;22001;-61
2024/01/08 06:49:25;;;;;;;2.40;1.40;;;;;;;7.27;90.43;99608.02;108145;1285;21964;-61
2024/01/08 06:51:50;;;;;;;2.30;1.40;;;;;;;7.26;90.38;99610.13;108062;1285;21994;-62
2024/01/08 06:54:16;;;;;;;4.00;1.40;;;;;;;7.25;90.29;99610.14;108070;1272;21996;-65
2024/01/08 06:56:41;;;;;;;2.90;1.50;;;;;;;7.23;89.85;99614.86;108063;1279;22448;-61
2024/01/08 06:59:07;;;;;;;4.10;2.20;;;;;;;7.21;89.93;99625.36;108171;1285;21986;-66
2024/01/08 07:01:32;;;;;;;5.30;2.50;;;;;;;7.20;90.42;99629.90;108139;1285;21984;-61
2024/01/08 07:03:58;;;;;;;4.20;2.20;;;;;;;7.18;90.46;99630.98;108065;1285;21987;-61
2024/01/08 07:06:24;;;;;;;4.00;1.70;;;;;;;7.20;90.58;99637.59;108170;1285;22002;-61
2024/01/08 07:08:49;;;;;;;2.20;1.40;;;;;;;7.20;90.57;99638.29;108301;1285;23650;-65
2024/01/08 07:11:20;;;;;;;3.60;2.20;;;;;;;7.18;90.42;99644.75;108316;1283;21997;-65
2024/01/08 07:13:45;;;;;;;5.30;2.20;;;;;;;7.17;90.48;99646.67;108254;1285;23686;-62
2024/01/08 07:16:11;;;;;;;3.60;1.90;;;;;;;7.16;90.70;99647.73;108210;1285;24360;-61
2024/01/08 07:18:37;;;;;;;3.70;1.80;;;;;;;7.17;90.18;99647.90;108167;1272;22622;-64
2024/01/08 07:21:03;;;;;;;4.10;2.00;;;;;;;7.18;90.20;99645.27;108094;1285;21986;-61
2024/01/08 07:23:28;;;;;;;5.90;2.00;;;;;;;7.18;89.93;99647.20;108103;1280;21995;-65
2024/01/08 07:25:54;;;;;;;3.30;1.70;;;;;;;7.18;90.09;99645.63;108221;1285;22211;-64
2024/01/08 07:28:20;;;;;;;4.30;2.40;;;;;;;7.15;90.34;99647.74;108102;1272;21996;-62
2024/01/08 07:30:45;;;;;;;3.60;2.20;;;;;;;7.11;90.31;99643.07;108075;1275;21992;-62
2024/01/08 07:33:11;;;;;;;3.30;1.80;;;;;;;7.09;90.54;99651.29;108130;1285;21988;-62
2024/01/08 07:35:36;;;;;;;5.10;2.20;;;;;;;7.08;90.43;99653.92;108095;1285;21999;-65
2024/01/08 07:38:02;;;;;;;3.00;2.00;;;;;;;7.06;90.66;99655.17;108165;1283;22815;-62
2024/01/08 07:40:28;;;;;;;4.00;2.20;;;;;;;7.03;90.54;99655.90;108074;1286;21987;-62
2024/01/08 07:42:54;;;;;;;4.90;2.60;;;;;;;7.04;90.61;99655.37;107320;1280;1003358;-65
2024/01/08 07:45:21;;;;;;;4.90;2.70;;;;;;;7.05;90.52;99666.35;108276;1285;21980;-67
2024/01/08 07:47:47;;;;;;;8.10;3.70;;;;;;;7.04;90.46;99667.76;108183;1285;22003;-63
2024/01/08 07:50:13;;;;;;;7.90;4.30;;;;;;;7.03;90.57;99673.34;108094;1285;21989;-60
2024/01/08 07:52:38;;;;;;;11.20;5.00;;;;;;;7.02;90.46;99673.52;108065;1285;21990;-63
2024/01/08 07:55:04;;;;;;;8.40;4.10;;;;;;;7.02;90.73;99670.39;108149;1285;22066;-60
2024/01/08 07:57:30;;;;;;;6.80;3.40;;;;;;;7.02;90.91;99669.34;108317;1283;21990;-61
2024/01/08 07:59:57;;;;;;;5.30;3.20;;;;;;;7.03;90.84;99673.52;108301;1283;21998;-65
2024/01/08 08:02:23;;;;;;;6.00;3.30;;;;;;;7.05;90.88;99680.82;108211;1285;21990;-64
2024/01/08 08:04:50;;;;;;;4.10;2.50;;;;;;;7.08;91.21;99686.01;108121;1285;22028;-61
2024/01/08 08:07:16;;;;;;;6.30;3.00;;;;;;;7.10;91.24;99689.14;108124;1284;21985;-61
2024/01/08 08:09:42;;;;;;;5.00;1.70;;;;;;;7.09;91.19;99687.23;108092;1285;22050;-64
2024/01/08 08:12:11;;;;;;;3.30;1.70;;;;;;;7.07;90.91;99688.64;108194;1277;21984;-62
2024/01/08 08:14:36;;;;;;;3.70;1.80;;;;;;;7.06;91.21;99691.80;107513;1285;1004134;-64
2024/01/08 08:17:03;;;;;;;3.20;2.10;;;;;;;7.07;91.26;99693.35;108128;1280;22067;-64
2024/01/08 08:19:29;;;;;;;3.70;2.20;;;;;;;7.09;91.12;99696.30;108090;1280;21999;-62
2024/01/08 08:21:55;;;;;;;6.50;2.90;;;;;;;7.08;91.06;99702.23;108078;1286;22173;-62
2024/01/08 08:24:21;;;;;;;6.50;2.90;;;;;;;7.06;91.06;99706.27;108038;1285;21975;-65
2024/01/08 08:26:47;;;;;;;5.00;2.00;;;;;;;7.03;90.81;99714.33;108036;1286;21994;-61
2024/01/08 08:29:13;;;;;;;4.90;2.30;;;;;;;6.99;90.83;99719.77;108074;1285;22172;-61
2024/01/08 08:31:38;;;;;;;4.70;2.30;;;;;;;7.00;91.14;99725.86;108020;1277;21996;-61
2024/01/08 08:34:04;;;;;;;3.40;2.00;;;;;;;6.99;90.65;99731.98;108091;1285;22002;-61
2024/01/08 08:36:30;;;;;;;4.70;2.00;;;;;;;7.00;91.04;99735.80;108029;1285;22492;-61
2024/01/08 08:38:56;;;;;;;3.10;1.80;;;;;;;7.02;90.84;99743.14;108074;1272;21990;-61
2024/01/08 08:41:22;;;;;;;3.30;1.90;;;;;;;6.96;90.43;99744.91;108166;1277;22003;-66
2024/01/08 08:43:48;;;;;;;3.40;1.90;;;;;;;6.90;89.46;99752.80;108268;1286;21999;-61
2024/01/08 08:46:15;;;;;;;2.90;1.90;;;;;;;6.81;88.82;99757.57;107540;1285;1002411;-61
2024/01/08 08:48:41;;;;;;;3.30;1.90;;;;;;;6.73;88.49;99761.81;108115;1282;22052;-68
2024/01/08 08:51:07;;;;;;;5.80;1.90;;;;;;;6.62;87.99;99765.02;108074;1283;23660;-66
2024/01/08 08:53:32;;;;;;;4.10;2.10;;;;;;;6.54;88.19;99764.89;108163;1285;21995;-61
2024/01/08 08:55:58;;;;;;;3.50;1.80;;;;;;;6.45;88.15;99772.27;108146;1279;21999;-60
2024/01/08 08:58:23;;;;;;;3.20;2.40;;;;;;;6.39;88.31;99777.52;108090;1285;22158;-65
2024/01/08 09:00:49;;;;;;;4.00;2.30;;;;;;;6.32;88.05;99778.77;108096;1285;23015;-66
2024/01/08 09:03:15;;;;;;;2.80;1.70;;;;;;;6.26;87.96;99781.92;108292;1285;22006;-66
2024/01/08 09:05:41;;;;;;;4.20;2.50;;;;;;;6.23;88.31;99788.90;107420;1285;1002592;-60
2024/01/08 09:08:07;;;;;;;4.30;2.30;;;;;;;6.15;87.99;99792.95;108054;1282;21992;-66
2024/01/08 09:10:34;;;;;;;4.50;2.50;;;;;;;6.10;88.32;99796.11;108242;1277;22000;-65
2024/01/08 09:13:00;;;;;;;5.20;2.50;;;;;;;6.07;88.48;99805.70;107978;1286;23663;-60
2024/01/08 09:15:25;;;;;;;4.30;2.10;;;;;;;6.09;89.01;99802.90;108110;1285;21998;-60
2024/01/08 09:17:51;;;;;;;5.80;3.10;;;;;;;6.11;88.96;99812.82;108048;1280;21982;-60
2024/01/08 09:20:16;;;;;;;4.00;2.30;;;;;;;6.10;88.65;99813.34;108108;1285;22005;-64
2024/01/08 09:22:43;;;;;;;4.30;2.50;;;;;;;6.08;89.06;99810.04;108084;1286;21984;-65
2024/01/08 09:26:46;;;;;;;4.40;2.40;;;;;;;5.45;90.37;99822.05;106911;1286;1002360;-59
2024/01/08 09:29:12;;;;;;;5.00;2.80;;;;;;;5.99;89.06;99821.34;108119;1288;21988;-61
2024/01/08 09:31:38;;;;;;;6.20;3.20;;;;;;;5.93;87.76;99820.67;108035;1289;21989;-59
2024/01/08 09:36:24;;;;;;;5.80;3.60;;;;;;;5.09;88.37;99819.08;107454;1292;548160;-60
2024/01/08 09:40:10;;;;;;;6.20;4.00;;;;;;;5.01;89.45;99824.79;107393;1290;549737;-60
2024/01/08 09:42:38;;;;;;;5.50;3.20;;;;;;;5.65;88.60;99823.50;107781;1293;22367;-62
